Time;durP1;ratioP1;P1;durP2;ratioP2;P2;SDS_P1;SDS_P2;PMS_P1;PMS_P2;Temp;Humidity;BMP_temperature;BMP_pressure;BME280_temperature;BME280_humidity;BME280_pressure;Samples;Min_cycle;Max_cycle;Signal;HPM_P1;HPM_P2
2022/01/26 00:07:11;;;;;;;18.38;10.20;;;;;;;;;;4982578;28;20050;-68
2022/01/26 00:09:37;;;;;;;18.90;10.27;;;;;;;;;;4983730;28;20596;-66
2022/01/26 00:12:03;;;;;;;16.35;10.02;;;;;;;;;;4980829;28;20038;-68
2022/01/26 00:14:29;;;;;;;23.60;10.32;;;;;;;;;;4983673;28;20038;-69
2022/01/26 00:16:55;;;;;;;20.38;10.27;;;;;;;;;;4981887;28;20048;-68
2022/01/26 00:19:26;;;;;;;17.40;9.27;;;;;;;;;;4983369;28;20037;-69
2022/01/26 00:21:53;;;;;;;23.90;10.38;;;;;;;;;;4982819;28;20026;-67
2022/01/26 00:29:29;;;;;;;18.35;9.32;;;;;;;;;;4982053;28;20043;-68
2022/01/26 00:40:08;;;;;;;19.63;9.07;;;;;;;;;;4983020;28;20073;-66
2022/01/26 00:42:38;;;;;;;14.80;8.98;;;;;;;;;;4981829;28;20035;-69
2022/01/26 00:45:09;;;;;;;15.75;8.13;;;;;;;;;;4983995;28;20038;-69
2022/01/26 00:47:35;;;;;;;16.77;10.13;;;;;;;;;;4981519;28;20384;-69
2022/01/26 00:50:06;;;;;;;22.13;8.73;;;;;;;;;;4983565;28;20530;-70
2022/01/26 00:52:40;;;;;;;20.02;9.95;;;;;;;;;;4983947;28;20034;-68
2022/01/26 00:55:08;;;;;;;16.65;8.35;;;;;;;;;;4980307;28;20033;-68
2022/01/26 00:57:34;;;;;;;14.90;9.30;;;;;;;;;;4981642;28;20681;-68
2022/01/26 01:00:00;;;;;;;20.23;8.75;;;;;;;;;;4996756;28;20129;-69
2022/01/26 01:02:27;;;;;;;16.45;8.40;;;;;;;;;;4979707;28;20034;-68
2022/01/26 01:04:56;;;;;;;14.98;8.80;;;;;;;;;;4982845;28;20022;-69
2022/01/26 01:07:23;;;;;;;18.63;8.55;;;;;;;;;;4985807;28;20073;-69
2022/01/26 01:09:49;;;;;;;17.17;8.00;;;;;;;;;;4986979;28;20042;-70
2022/01/26 01:12:15;;;;;;;19.80;9.55;;;;;;;;;;4985417;28;20034;-69
2022/01/26 01:14:44;;;;;;;13.07;7.90;;;;;;;;;;4988528;28;20129;-68
2022/01/26 01:17:20;;;;;;;16.48;9.15;;;;;;;;;;4986896;28;20030;-67
2022/01/26 01:20:04;;;;;;;15.82;9.07;;;;;;;;;;4986511;28;20027;-68
2022/01/26 01:22:56;;;;;;;16.50;8.15;;;;;;;;;;4987161;28;20023;-69
2022/01/26 01:33:04;;;;;;;20.60;10.65;;;;;;;;;;4984686;28;20093;-69
2022/01/26 01:35:32;;;;;;;16.88;10.07;;;;;;;;;;4987450;28;20028;-70
2022/01/26 01:38:07;;;;;;;17.63;8.57;;;;;;;;;;4986190;28;20081;-68
2022/01/26 01:40:33;;;;;;;19.38;9.77;;;;;;;;;;4984932;28;20602;-70
2022/01/26 01:42:59;;;;;;;17.77;9.60;;;;;;;;;;4984464;28;20030;-68
2022/01/26 01:45:32;;;;;;;19.27;10.18;;;;;;;;;;4986741;28;20030;-68
2022/01/26 01:47:58;;;;;;;17.08;9.93;;;;;;;;;;4984464;28;20031;-69
2022/01/26 01:50:25;;;;;;;17.77;8.52;;;;;;;;;;5000287;28;20053;-68
2022/01/26 01:52:51;;;;;;;16.65;9.15;;;;;;;;;;4986790;28;20066;-69
2022/01/26 01:55:17;;;;;;;20.20;9.88;;;;;;;;;;4985444;28;20026;-69
2022/01/26 01:57:43;;;;;;;25.38;10.70;;;;;;;;;;4989748;28;20050;-70
2022/01/26 02:00:10;;;;;;;19.48;9.63;;;;;;;;;;4986377;28;20034;-69
2022/01/26 02:02:36;;;;;;;16.90;9.65;;;;;;;;;;4986301;28;20038;-69
2022/01/26 02:05:03;;;;;;;19.30;10.00;;;;;;;;;;4985214;28;20015;-68
2022/01/26 02:07:29;;;;;;;15.82;9.50;;;;;;;;;;4985496;28;20050;-67
2022/01/26 02:09:55;;;;;;;18.55;10.38;;;;;;;;;;4980551;28;20554;-68
2022/01/26 02:12:24;;;;;;;22.88;10.23;;;;;;;;;;4984758;28;20034;-69
2022/01/26 02:15:02;;;;;;;20.05;9.38;;;;;;;;;;4984322;28;20177;-68
2022/01/26 02:17:57;;;;;;;17.67;10.50;;;;;;;;;;4984209;28;20045;-69
2022/01/26 02:50:54;;;;;;;21.33;10.38;;;;;;;;;;4983107;28;20731;-69
2022/01/26 02:53:41;;;;;;;17.38;10.27;;;;;;;;;;4984475;28;20050;-67
2022/01/26 02:56:05;;;;;;;;;;;;;;;;;;4983085;28;20096;-68
2022/01/26 03:03:31;;;;;;;16.55;10.00;;;;;;;;;;4984613;28;20862;-68
2022/01/26 03:06:06;;;;;;;18.20;9.85;;;;;;;;;;4983299;28;20116;-68
2022/01/26 03:08:40;;;;;;;16.57;9.23;;;;;;;;;;4982814;28;20062;-68
2022/01/26 03:11:12;;;;;;;20.10;10.05;;;;;;;;;;4983824;28;20022;-69
2022/01/26 03:13:45;;;;;;;15.75;9.13;;;;;;;;;;4983736;28;20038;-70
2022/01/26 03:16:21;;;;;;;21.30;9.98;;;;;;;;;;4984459;28;20125;-67
2022/01/26 03:18:57;;;;;;;21.20;10.32;;;;;;;;;;4982849;28;20092;-68
2022/01/26 03:21:35;;;;;;;23.55;10.68;;;;;;;;;;4983823;28;20578;-69
2022/01/26 03:34:32;;;;;;;15.55;9.23;;;;;;;;;;4982419;28;20081;-68
2022/01/26 03:37:04;;;;;;;15.15;9.23;;;;;;;;;;4984011;28;20030;-69
2022/01/26 03:39:39;;;;;;;19.33;10.05;;;;;;;;;;4982492;28;20034;-69
2022/01/26 03:42:07;;;;;;;15.33;9.63;;;;;;;;;;4981764;28;20034;-69
2022/01/26 03:44:34;;;;;;;18.52;9.43;;;;;;;;;;4984500;28;20037;-68
2022/01/26 03:47:00;;;;;;;19.27;9.98;;;;;;;;;;4982362;28;20042;-68
2022/01/26 03:49:27;;;;;;;15.15;9.25;;;;;;;;;;4985744;28;20034;-69
2022/01/26 03:51:53;;;;;;;16.77;10.00;;;;;;;;;;4984169;28;21528;-70
2022/01/26 03:54:20;;;;;;;17.48;9.45;;;;;;;;;;4983182;28;20034;-69
2022/01/26 03:56:46;;;;;;;17.13;9.30;;;;;;;;;;4984094;28;20498;-69
2022/01/26 03:59:12;;;;;;;17.00;8.88;;;;;;;;;;4983257;28;20509;-68
2022/01/26 04:01:39;;;;;;;21.10;9.77;;;;;;;;;;4983195;28;20045;-68
2022/01/26 04:04:05;;;;;;;19.08;10.07;;;;;;;;;;4984096;28;20030;-67
2022/01/26 04:06:32;;;;;;;19.00;9.40;;;;;;;;;;4982710;28;20543;-69
2022/01/26 04:08:58;;;;;;;18.67;10.57;;;;;;;;;;4982161;28;20041;-68
2022/01/26 04:11:37;;;;;;;20.98;8.98;;;;;;;;;;4983122;28;20061;-68
2022/01/26 04:14:15;;;;;;;16.25;9.57;;;;;;;;;;4981533;28;20029;-69
2022/01/26 04:16:43;;;;;;;18.40;10.15;;;;;;;;;;4983537;28;20045;-69
2022/01/26 04:19:09;;;;;;;19.17;9.65;;;;;;;;;;4983355;28;20073;-69
2022/01/26 04:24:30;;;;;;;20.00;9.38;;;;;;;;;;4982547;28;20153;-68
2022/01/26 04:27:13;;;;;;;24.10;10.38;;;;;;;;;;4981931;28;20436;-68
2022/01/26 04:29:39;;;;;;;13.35;8.48;;;;;;;;;;4983294;28;20034;-69
2022/01/26 04:32:06;;;;;;;19.33;9.55;;;;;;;;;;4980664;28;20473;-68
2022/01/26 04:34:33;;;;;;;20.45;9.93;;;;;;;;;;4984130;28;20113;-68
2022/01/26 04:39:39;;;;;;;18.58;9.32;;;;;;;;;;4983886;28;20380;-68
2022/01/26 04:42:11;;;;;;;17.83;9.02;;;;;;;;;;4987047;28;20030;-68
2022/01/26 04:44:50;;;;;;;16.95;8.15;;;;;;;;;;4987478;28;20101;-67
2022/01/26 04:47:16;;;;;;;16.23;8.65;;;;;;;;;;5001504;28;20310;-68
2022/01/26 04:49:42;;;;;;;17.58;8.07;;;;;;;;;;4985244;28;20473;-68
2022/01/26 04:52:08;;;;;;;17.85;9.05;;;;;;;;;;4985345;28;20106;-68
2022/01/26 04:54:34;;;;;;;16.25;8.93;;;;;;;;;;4986748;28;20027;-68
2022/01/26 04:57:00;;;;;;;14.50;7.90;;;;;;;;;;5000383;28;20033;-69
2022/01/26 04:59:26;;;;;;;16.83;9.82;;;;;;;;;;4987449;28;20085;-69
2022/01/26 05:01:52;;;;;;;17.17;8.35;;;;;;;;;;4984959;28;20038;-68
2022/01/26 05:04:19;;;;;;;17.20;9.68;;;;;;;;;;5002655;28;20456;-69
2022/01/26 05:06:45;;;;;;;21.20;10.02;;;;;;;;;;4986316;28;20117;-69
2022/01/26 05:09:11;;;;;;;14.40;7.95;;;;;;;;;;4985100;28;20039;-68
2022/01/26 05:11:40;;;;;;;15.63;8.95;;;;;;;;;;4985179;28;20081;-67
2022/01/26 05:14:06;;;;;;;13.75;7.80;;;;;;;;;;4982676;28;20027;-68
2022/01/26 05:16:33;;;;;;;19.55;9.15;;;;;;;;;;4986297;28;20030;-67
2022/01/26 05:18:59;;;;;;;14.45;7.78;;;;;;;;;;4987017;28;20052;-69
2022/01/26 05:21:26;;;;;;;17.27;8.27;;;;;;;;;;4985697;28;20034;-68
2022/01/26 05:23:53;;;;;;;19.38;9.10;;;;;;;;;;4984933;28;20022;-69
2022/01/26 05:26:19;;;;;;;19.40;9.02;;;;;;;;;;4986144;28;20030;-69
2022/01/26 05:28:45;;;;;;;18.10;8.43;;;;;;;;;;4986756;28;20034;-69
2022/01/26 05:31:11;;;;;;;16.15;9.27;;;;;;;;;;4983827;28;20042;-69
2022/01/26 05:33:37;;;;;;;16.23;9.48;;;;;;;;;;4986286;28;20022;-68
2022/01/26 05:36:04;;;;;;;14.68;8.05;;;;;;;;;;4985088;28;20019;-68
2022/01/26 05:38:30;;;;;;;13.57;8.40;;;;;;;;;;4985065;28;20041;-69
2022/01/26 05:40:58;;;;;;;17.92;9.13;;;;;;;;;;4985039;28;20043;-69
2022/01/26 05:43:25;;;;;;;14.90;8.07;;;;;;;;;;4985754;28;20042;-68
2022/01/26 05:45:54;;;;;;;16.05;8.98;;;;;;;;;;4999625;28;20404;-69
2022/01/26 05:48:21;;;;;;;15.00;9.10;;;;;;;;;;4984101;28;20061;-69
2022/01/26 05:50:56;;;;;;;16.25;8.05;;;;;;;;;;4987928;28;20030;-69
2022/01/26 05:53:22;;;;;;;15.18;9.25;;;;;;;;;;4984178;28;20019;-68
2022/01/26 05:55:53;;;;;;;20.67;8.25;;;;;;;;;;4986287;28;20025;-68
2022/01/26 05:58:19;;;;;;;12.55;7.75;;;;;;;;;;5000961;28;20030;-69
2022/01/26 06:00:45;;;;;;;14.15;8.77;;;;;;;;;;4981777;28;20038;-68
2022/01/26 06:03:11;;;;;;;17.60;9.05;;;;;;;;;;4986349;28;20289;-68
2022/01/26 06:05:38;;;;;;;17.83;8.80;;;;;;;;;;4984019;28;20060;-67
2022/01/26 06:08:04;;;;;;;14.80;8.10;;;;;;;;;;4987493;28;20078;-69
2022/01/26 06:10:30;;;;;;;14.48;8.02;;;;;;;;;;4984968;28;20037;-68
2022/01/26 06:12:56;;;;;;;13.10;7.50;;;;;;;;;;4984242;28;20797;-67
2022/01/26 06:15:22;;;;;;;18.23;8.65;;;;;;;;;;4986387;28;20472;-69
2022/01/26 06:17:48;;;;;;;15.52;8.55;;;;;;;;;;4986320;28;20054;-69
2022/01/26 06:20:14;;;;;;;17.13;9.07;;;;;;;;;;4985715;28;20030;-69
2022/01/26 06:22:40;;;;;;;16.02;7.75;;;;;;;;;;4986962;28;20026;-69
2022/01/26 06:25:07;;;;;;;16.05;9.05;;;;;;;;;;4985233;28;20033;-68
2022/01/26 06:27:34;;;;;;;15.35;8.50;;;;;;;;;;4981193;28;20068;-68
2022/01/26 06:30:00;;;;;;;18.55;9.57;;;;;;;;;;4986927;28;20551;-68
2022/01/26 06:32:27;;;;;;;13.35;7.95;;;;;;;;;;4981881;28;20034;-68
2022/01/26 06:34:54;;;;;;;14.10;7.65;;;;;;;;;;4986500;28;20034;-68
2022/01/26 06:37:20;;;;;;;14.40;7.95;;;;;;;;;;4983970;28;20491;-68
2022/01/26 06:39:46;;;;;;;12.70;8.00;;;;;;;;;;4984056;28;20422;-68
2022/01/26 06:42:15;;;;;;;12.75;6.82;;;;;;;;;;4983355;28;20089;-69
2022/01/26 06:45:08;;;;;;;15.57;8.68;;;;;;;;;;4985233;28;20030;-67
2022/01/26 06:47:51;;;;;;;13.93;7.97;;;;;;;;;;4984822;28;20037;-68
2022/01/26 06:50:18;;;;;;;13.90;7.68;;;;;;;;;;4984853;28;20040;-68
2022/01/26 06:52:46;;;;;;;12.70;7.82;;;;;;;;;;4985301;28;20031;-68
2022/01/26 06:55:13;;;;;;;15.75;7.88;;;;;;;;;;4986339;28;20104;-69
2022/01/26 06:57:39;;;;;;;11.77;7.47;;;;;;;;;;4984801;28;20406;-67
2022/01/26 07:00:06;;;;;;;13.80;7.53;;;;;;;;;;4984532;28;20026;-69
2022/01/26 07:02:32;;;;;;;11.57;6.72;;;;;;;;;;4985542;28;20069;-68
2022/01/26 07:04:58;;;;;;;13.40;8.00;;;;;;;;;;4984449;28;20026;-69
2022/01/26 07:07:24;;;;;;;13.77;7.43;;;;;;;;;;4983828;28;20583;-71
2022/01/26 07:09:50;;;;;;;13.90;7.05;;;;;;;;;;4999151;28;20125;-68
2022/01/26 07:12:16;;;;;;;13.48;7.22;;;;;;;;;;4983166;28;20022;-66
2022/01/26 07:22:46;;;;;;;13.70;7.00;;;;;;;;;;4982897;28;20125;-68
2022/01/26 07:25:12;;;;;;;13.30;6.60;;;;;;;;;;4996821;28;20038;-67
2022/01/26 07:27:38;;;;;;;15.00;6.25;;;;;;;;;;4986478;28;20027;-68
2022/01/26 07:30:07;;;;;;;12.75;7.20;;;;;;;;;;4996232;28;20038;-67
2022/01/26 07:32:35;;;;;;;10.93;5.75;;;;;;;;;;4984265;28;20032;-68
2022/01/26 07:35:01;;;;;;;11.50;6.43;;;;;;;;;;4984203;28;20033;-68
2022/01/26 07:37:27;;;;;;;13.27;5.97;;;;;;;;;;4980291;28;20045;-69
2022/01/26 07:40:09;;;;;;;12.35;6.93;;;;;;;;;;4981516;28;20065;-69
2022/01/26 07:42:36;;;;;;;13.05;6.80;;;;;;;;;;4982709;28;20560;-68
2022/01/26 07:45:03;;;;;;;14.60;7.15;;;;;;;;;;4982777;28;20034;-69
2022/01/26 07:47:31;;;;;;;9.13;5.95;;;;;;;;;;4982014;28;20452;-68
2022/01/26 07:50:01;;;;;;;11.43;6.25;;;;;;;;;;4982259;28;20037;-68
2022/01/26 07:52:30;;;;;;;10.73;6.15;;;;;;;;;;4982285;28;20022;-69
2022/01/26 07:54:56;;;;;;;10.55;6.10;;;;;;;;;;4982865;28;20257;-69
2022/01/26 07:57:23;;;;;;;10.18;6.22;;;;;;;;;;4980815;28;20030;-69
2022/01/26 07:59:49;;;;;;;11.65;5.65;;;;;;;;;;4981900;28;20515;-69
2022/01/26 08:02:15;;;;;;;8.13;5.70;;;;;;;;;;4983218;28;20493;-70
2022/01/26 08:04:41;;;;;;;11.23;6.30;;;;;;;;;;4988888;28;20587;-69
2022/01/26 08:07:07;;;;;;;12.35;6.93;;;;;;;;;;4978912;28;20651;-70
2022/01/26 08:09:34;;;;;;;11.38;5.85;;;;;;;;;;4999821;28;20054;-70
2022/01/26 08:12:00;;;;;;;11.18;5.90;;;;;;;;;;4959869;28;20038;-69
2022/01/26 08:14:26;;;;;;;11.43;6.00;;;;;;;;;;4962100;28;20030;-69
2022/01/26 08:16:52;;;;;;;8.52;5.47;;;;;;;;;;4960423;28;20038;-68
2022/01/26 08:19:19;;;;;;;10.02;5.95;;;;;;;;;;4960950;28;20058;-68
2022/01/26 08:21:45;;;;;;;11.02;6.00;;;;;;;;;;4964623;28;20058;-68
2022/01/26 08:24:15;;;;;;;9.52;5.47;;;;;;;;;;4960862;28;20038;-69
2022/01/26 08:26:43;;;;;;;13.88;5.97;;;;;;;;;;4961809;28;20031;-70
2022/01/26 08:29:16;;;;;;;9.88;6.60;;;;;;;;;;4959260;28;20027;-69
2022/01/26 08:31:43;;;;;;;9.25;5.20;;;;;;;;;;4964266;28;20022;-69
2022/01/26 08:34:09;;;;;;;8.95;5.57;;;;;;;;;;4963475;28;20022;-69
2022/01/26 08:36:35;;;;;;;11.82;5.50;;;;;;;;;;4990594;28;20034;-67
2022/01/26 08:39:01;;;;;;;10.68;5.85;;;;;;;;;;4982054;28;20030;-69
2022/01/26 08:41:28;;;;;;;10.75;6.15;;;;;;;;;;4979818;28;20030;-69
2022/01/26 08:43:54;;;;;;;9.77;6.60;;;;;;;;;;5007023;28;20046;-69
2022/01/26 08:46:21;;;;;;;14.45;7.38;;;;;;;;;;4981612;28;20038;-69
2022/01/26 08:48:47;;;;;;;10.85;6.80;;;;;;;;;;5011159;28;20034;-70
2022/01/26 08:51:14;;;;;;;9.23;6.10;;;;;;;;;;4979506;28;20110;-68
2022/01/26 08:53:40;;;;;;;12.18;7.20;;;;;;;;;;4982234;28;20034;-68
2022/01/26 08:56:06;;;;;;;10.98;5.80;;;;;;;;;;4981314;28;20061;-69
2022/01/26 08:58:33;;;;;;;10.65;6.20;;;;;;;;;;4978886;28;20022;-67
2022/01/26 09:00:59;;;;;;;15.50;7.68;;;;;;;;;;4981065;28;20056;-69
2022/01/26 09:03:25;;;;;;;10.18;6.05;;;;;;;;;;4980423;28;20045;-70
2022/01/26 09:05:51;;;;;;;14.18;7.75;;;;;;;;;;4982279;28;20488;-70
2022/01/26 09:08:19;;;;;;;9.68;6.63;;;;;;;;;;4976013;28;20601;-70
2022/01/26 09:10:45;;;;;;;11.93;5.93;;;;;;;;;;4974070;28;20128;-69
2022/01/26 09:13:11;;;;;;;11.10;6.70;;;;;;;;;;4975544;28;20037;-70
2022/01/26 09:15:39;;;;;;;13.10;5.93;;;;;;;;;;4974848;28;20408;-69
2022/01/26 09:18:07;;;;;;;8.98;5.45;;;;;;;;;;4975273;28;20061;-69
2022/01/26 09:20:36;;;;;;;13.05;6.20;;;;;;;;;;4975050;28;20026;-70
2022/01/26 09:23:02;;;;;;;10.10;6.68;;;;;;;;;;4975065;28;20454;-68
2022/01/26 09:25:28;;;;;;;11.48;6.07;;;;;;;;;;4974975;28;20023;-70
2022/01/26 09:27:56;;;;;;;10.65;5.93;;;;;;;;;;4976253;28;20045;-70
2022/01/26 09:30:22;;;;;;;9.63;5.47;;;;;;;;;;5010609;28;20030;-70
2022/01/26 09:32:49;;;;;;;12.23;5.93;;;;;;;;;;4978785;28;20030;-70
2022/01/26 09:35:15;;;;;;;9.88;5.38;;;;;;;;;;4996107;28;20070;-70
2022/01/26 09:37:41;;;;;;;7.53;5.18;;;;;;;;;;4965652;28;20088;-69
2022/01/26 09:40:08;;;;;;;8.70;5.18;;;;;;;;;;4965504;28;20125;-68
2022/01/26 09:42:36;;;;;;;10.90;6.07;;;;;;;;;;4965785;28;20070;-70
2022/01/26 09:45:03;;;;;;;8.20;5.15;;;;;;;;;;4967624;28;20027;-70
2022/01/26 09:47:29;;;;;;;11.00;4.95;;;;;;;;;;4998393;28;20030;-70
2022/01/26 09:49:55;;;;;;;8.65;5.38;;;;;;;;;;4967853;28;20472;-70
2022/01/26 09:52:34;;;;;;;7.72;4.47;;;;;;;;;;4996805;28;20035;-70
2022/01/26 09:55:00;;;;;;;8.00;5.07;;;;;;;;;;4957333;28;20081;-70
2022/01/26 09:57:27;;;;;;;10.27;4.65;;;;;;;;;;4983939;28;20027;-70
2022/01/26 09:59:53;;;;;;;12.23;4.30;;;;;;;;;;4984346;28;20602;-70
2022/01/26 10:02:20;;;;;;;8.23;3.63;;;;;;;;;;4983875;28;20026;-70
2022/01/26 10:04:46;;;;;;;7.63;4.13;;;;;;;;;;4988375;28;20045;-68
2022/01/26 10:15:35;;;;;;;;;;;;;;;;;;4977328;28;20109;-71
2022/01/26 10:18:03;;;;;;;5.63;3.38;;;;;;;;;;4992750;28;20326;-70
2022/01/26 10:20:38;;;;;;;5.15;2.90;;;;;;;;;;4979238;28;20046;-70
2022/01/26 10:23:08;;;;;;;5.03;3.10;;;;;;;;;;4984661;28;20057;-69
2022/01/26 10:25:34;;;;;;;6.72;3.33;;;;;;;;;;4983158;28;20520;-70
2022/01/26 10:28:01;;;;;;;7.70;3.50;;;;;;;;;;4984233;28;20101;-70
2022/01/26 10:30:27;;;;;;;6.78;3.63;;;;;;;;;;4985239;28;20146;-69
2022/01/26 10:32:53;;;;;;;5.78;3.38;;;;;;;;;;4982609;28;20485;-70
2022/01/26 10:35:19;;;;;;;7.38;3.42;;;;;;;;;;4984705;28;20030;-69
2022/01/26 10:37:53;;;;;;;6.50;3.42;;;;;;;;;;4983168;28;20571;-70
2022/01/26 10:40:23;;;;;;;7.60;4.78;;;;;;;;;;4985123;28;20130;-70
2022/01/26 10:42:55;;;;;;;4.80;3.45;;;;;;;;;;4982825;28;20109;-71
2022/01/26 10:45:49;;;;;;;6.32;3.35;;;;;;;;;;4983408;28;20440;-70
2022/01/26 10:48:28;;;;;;;6.70;3.60;;;;;;;;;;4984986;28;20477;-70
2022/01/26 10:53:43;;;;;;;6.53;2.78;;;;;;;;;;4984553;28;20566;-70
2022/01/26 10:56:09;;;;;;;4.75;3.20;;;;;;;;;;4999656;28;20499;-70
2022/01/26 10:58:36;;;;;;;6.05;4.55;;;;;;;;;;4983976;28;20423;-70
2022/01/26 11:01:02;;;;;;;9.82;4.57;;;;;;;;;;4984084;28;20057;-70
2022/01/26 11:03:28;;;;;;;4.47;3.47;;;;;;;;;;4985532;28;20121;-69
2022/01/26 11:05:55;;;;;;;5.30;3.60;;;;;;;;;;4984194;28;20122;-69
2022/01/26 11:08:21;;;;;;;11.20;4.22;;;;;;;;;;4984072;28;20050;-69
2022/01/26 11:10:48;;;;;;;5.93;3.95;;;;;;;;;;4982785;28;20022;-70
2022/01/26 11:13:30;;;;;;;7.03;4.10;;;;;;;;;;4984096;28;20030;-72
2022/01/26 11:16:12;;;;;;;7.05;3.58;;;;;;;;;;4981980;28;20050;-70
2022/01/26 11:18:58;;;;;;;6.10;3.60;;;;;;;;;;4982043;28;20056;-69
2022/01/26 11:21:30;;;;;;;10.43;4.82;;;;;;;;;;4981093;28;20725;-69
2022/01/26 11:24:10;;;;;;;6.53;4.03;;;;;;;;;;4983466;28;20038;-70
2022/01/26 11:26:42;;;;;;;7.93;3.67;;;;;;;;;;4981830;28;20105;-70
2022/01/26 11:29:18;;;;;;;6.55;3.78;;;;;;;;;;4983431;28;20428;-70
2022/01/26 11:31:46;;;;;;;11.60;3.30;;;;;;;;;;4980679;28;20023;-71
2022/01/26 11:34:12;;;;;;;5.88;3.70;;;;;;;;;;4999903;28;20026;-70
2022/01/26 11:36:40;;;;;;;5.97;4.07;;;;;;;;;;4996840;28;20022;-71
2022/01/26 11:42:20;;;;;;;7.63;4.20;;;;;;;;;;4982643;28;20161;-71
2022/01/26 11:45:05;;;;;;;5.88;3.40;;;;;;;;;;4985002;28;20117;-71
2022/01/26 11:47:32;;;;;;;8.00;4.30;;;;;;;;;;4981351;28;20030;-70
2022/01/26 11:50:04;;;;;;;6.90;3.63;;;;;;;;;;4981910;28;20042;-71
2022/01/26 11:52:35;;;;;;;5.50;3.42;;;;;;;;;;4984616;28;20500;-71
2022/01/26 11:55:01;;;;;;;7.50;3.70;;;;;;;;;;4983346;28;20038;-70
2022/01/26 11:57:40;;;;;;;6.82;3.70;;;;;;;;;;4984016;28;20088;-71
2022/01/26 12:00:11;;;;;;;7.95;4.07;;;;;;;;;;4983110;28;20089;-71
2022/01/26 12:05:14;;;;;;;6.68;3.60;;;;;;;;;;4983640;28;20062;-70
2022/01/26 12:08:06;;;;;;;7.55;3.58;;;;;;;;;;4980853;28;20085;-70
2022/01/26 12:10:36;;;;;;;6.40;3.58;;;;;;;;;;4982336;28;20050;-70
2022/01/26 12:13:10;;;;;;;9.32;4.13;;;;;;;;;;4978946;28;20030;-71
2022/01/26 12:18:42;;;;;;;8.98;3.60;;;;;;;;;;4990517;28;20068;-71
2022/01/26 12:32:49;;;;;;;6.05;4.03;;;;;;;;;;4981566;28;20045;-71
2022/01/26 12:35:21;;;;;;;5.60;4.13;;;;;;;;;;4978935;28;20043;-72
2022/01/26 12:37:55;;;;;;;6.43;4.72;;;;;;;;;;4983975;28;20030;-70
2022/01/26 12:43:13;;;;;;;10.68;4.70;;;;;;;;;;4981567;28;20097;-70
2022/01/26 12:45:39;;;;;;;8.70;4.80;;;;;;;;;;4981903;28;20139;-71
2022/01/26 12:48:08;;;;;;;6.55;4.25;;;;;;;;;;4982265;28;20030;-71
2022/01/26 12:50:34;;;;;;;8.00;4.18;;;;;;;;;;4982560;28;20026;-71
2022/01/26 12:53:00;;;;;;;10.80;4.78;;;;;;;;;;4981775;28;20098;-71
2022/01/26 12:55:28;;;;;;;9.15;4.30;;;;;;;;;;4981684;28;20113;-72
2022/01/26 12:57:55;;;;;;;15.00;4.53;;;;;;;;;;4983932;28;20027;-71
2022/01/26 13:00:23;;;;;;;9.85;3.97;;;;;;;;;;4981647;28;20027;-70
2022/01/26 13:02:50;;;;;;;8.00;4.07;;;;;;;;;;4980970;28;20032;-71
2022/01/26 13:05:22;;;;;;;6.47;4.20;;;;;;;;;;4976516;28;20077;-72
2022/01/26 13:07:58;;;;;;;8.18;4.43;;;;;;;;;;4981588;28;20504;-71
2022/01/26 13:10:24;;;;;;;5.93;4.00;;;;;;;;;;4979799;28;20621;-70
2022/01/26 13:12:50;;;;;;;13.00;4.55;;;;;;;;;;4990985;28;20030;-71
2022/01/26 13:15:24;;;;;;;7.97;4.68;;;;;;;;;;4975421;28;20026;-70
2022/01/26 13:18:15;;;;;;;7.60;4.28;;;;;;;;;;4974146;28;20454;-70
2022/01/26 13:23:28;;;;;;;8.68;4.97;;;;;;;;;;4978603;28;20030;-71
2022/01/26 13:29:15;;;;;;;18.20;7.77;;;;;;;;;;4982708;28;20057;-70
2022/01/26 13:37:32;;;;;;;10.65;5.15;;;;;;;;;;4982065;28;20217;-70
2022/01/26 13:50:55;;;;;;;10.10;4.18;;;;;;;;;;4978332;28;20488;-71
2022/01/26 13:53:14;;;;;;;7.88;4.35;;;;;;;;;;4976748;28;20053;-70
2022/01/26 13:56:07;;;;;;;9.30;4.30;;;;;;;;;;4985493;28;20168;-70
2022/01/26 13:58:46;;;;;;;8.45;4.82;;;;;;;;;;4987836;28;20109;-72
2022/01/26 14:01:18;;;;;;;8.38;4.38;;;;;;;;;;4983118;28;20026;-70
2022/01/26 14:03:51;;;;;;;12.57;5.57;;;;;;;;;;4985247;28;20057;-70
2022/01/26 14:06:17;;;;;;;8.93;4.47;;;;;;;;;;4981809;28;20039;-69
2022/01/26 14:08:43;;;;;;;9.27;4.35;;;;;;;;;;4984498;28;20094;-71
2022/01/26 14:11:09;;;;;;;8.40;4.30;;;;;;;;;;4982832;28;20054;-70
2022/01/26 14:13:36;;;;;;;10.45;5.00;;;;;;;;;;4985476;28;20157;-69
2022/01/26 14:16:04;;;;;;;6.93;4.20;;;;;;;;;;4997662;28;20141;-70
2022/01/26 14:19:04;;;;;;;6.20;4.10;;;;;;;;;;4979719;28;20046;-70
2022/01/26 14:21:31;;;;;;;11.65;5.18;;;;;;;;;;4986531;28;20052;-71
2022/01/26 14:26:36;;;;;;;10.68;5.75;;;;;;;;;;4984965;28;20753;-71
2022/01/26 14:29:07;;;;;;;10.75;4.47;;;;;;;;;;4984466;28;20061;-69
2022/01/26 14:31:53;;;;;;;8.88;5.00;;;;;;;;;;4985478;28;20080;-71
2022/01/26 15:08:41;;;;;;;7.78;4.75;;;;;;;;;;4982568;28;20045;-71
2022/01/26 15:34:20;;;;;;;12.45;4.85;;;;;;;;;;4980321;28;20628;-70
2022/01/26 15:58:22;;;;;;;9.38;5.03;;;;;;;;;;4978379;28;20089;-70
2022/01/26 16:06:55;;;;;;;6.80;4.75;;;;;;;;;;4977546;28;20057;-71
2022/01/26 18:16:31;;;;;;;13.93;10.25;;;;;;;;;;4981223;28;20029;-70
2022/01/26 18:33:06;;;;;;;11.90;8.43;;;;;;;;;;4978264;28;20497;-69
2022/01/26 18:38:51;;;;;;;9.02;6.13;;;;;;;;;;4979067;28;20472;-69
2022/01/26 18:51:44;;;;;;;8.70;5.72;;;;;;;;;;4981319;28;20088;-69
2022/01/26 18:54:11;;;;;;;12.73;6.40;;;;;;;;;;4984697;28;20057;-69
2022/01/26 18:56:39;;;;;;;8.60;5.32;;;;;;;;;;4976297;28;20456;-70
2022/01/26 18:59:05;;;;;;;9.50;5.47;;;;;;;;;;4976279;28;20054;-70
2022/01/26 19:01:32;;;;;;;10.98;5.25;;;;;;;;;;4980971;28;20030;-70
2022/01/26 19:03:58;;;;;;;10.18;5.22;;;;;;;;;;4975090;28;20500;-70
2022/01/26 19:06:24;;;;;;;15.35;6.55;;;;;;;;;;4996079;28;20050;-71
2022/01/26 19:08:50;;;;;;;13.18;7.47;;;;;;;;;;4982334;28;20058;-70
2022/01/26 19:11:19;;;;;;;16.20;6.38;;;;;;;;;;4978277;28;20034;-71
2022/01/26 19:13:46;;;;;;;8.30;5.07;;;;;;;;;;4980348;28;20077;-70
2022/01/26 19:16:32;;;;;;;9.25;5.63;;;;;;;;;;4980307;28;20034;-70
2022/01/26 19:19:10;;;;;;;13.98;5.90;;;;;;;;;;4980086;28;20045;-70
2022/01/26 19:26:53;;;;;;;10.40;5.47;;;;;;;;;;4980118;28;20041;-69
2022/01/26 19:29:45;;;;;;;12.50;6.65;;;;;;;;;;4983235;28;20053;-70
2022/01/26 19:51:09;;;;;;;333.15;146.60;;;;;;;;;;4976329;28;20513;-69
2022/01/26 19:53:36;;;;;;;482.00;220.13;;;;;;;;;;4975542;28;20037;-69
2022/01/26 19:56:02;;;;;;;657.53;319.80;;;;;;;;;;4976493;28;20516;-69
2022/01/26 19:58:28;;;;;;;343.63;158.25;;;;;;;;;;4977195;28;20038;-68
2022/01/26 20:00:54;;;;;;;296.73;133.50;;;;;;;;;;4973770;28;20503;-68
2022/01/26 20:03:21;;;;;;;282.45;138.23;;;;;;;;;;4971552;28;20105;-69
2022/01/26 20:05:50;;;;;;;182.40;102.60;;;;;;;;;;4970735;28;20037;-69
2022/01/26 20:11:29;;;;;;;29.17;23.52;;;;;;;;;;4995064;28;20197;-69
2022/01/26 20:14:01;;;;;;;26.77;21.67;;;;;;;;;;4988410;28;20274;-69
2022/01/26 20:16:27;;;;;;;15.32;12.30;;;;;;;;;;4979750;28;20070;-69
2022/01/26 20:18:53;;;;;;;16.80;13.32;;;;;;;;;;4975695;28;20034;-68
2022/01/26 20:21:19;;;;;;;12.10;10.98;;;;;;;;;;4975608;28;20038;-69
2022/01/26 20:23:45;;;;;;;11.98;9.50;;;;;;;;;;4976198;28;20143;-68
2022/01/26 20:26:12;;;;;;;24.05;13.88;;;;;;;;;;4976867;28;20240;-69
2022/01/26 20:28:41;;;;;;;10.82;9.70;;;;;;;;;;4982246;28;20374;-68
2022/01/26 20:31:17;;;;;;;13.88;10.68;;;;;;;;;;4978065;28;20408;-69
2022/01/26 20:33:44;;;;;;;13.98;12.40;;;;;;;;;;4977407;28;20046;-69
2022/01/26 20:36:10;;;;;;;8.05;6.57;;;;;;;;;;4989782;28;20686;-69
2022/01/26 20:38:36;;;;;;;10.77;6.85;;;;;;;;;;4976183;28;20038;-69
2022/01/26 20:41:02;;;;;;;9.25;6.55;;;;;;;;;;4975738;28;20037;-69
2022/01/26 20:43:29;;;;;;;13.88;10.43;;;;;;;;;;4978426;28;20039;-69
2022/01/26 20:45:55;;;;;;;11.48;9.70;;;;;;;;;;4977575;28;20037;-69
2022/01/26 20:48:21;;;;;;;15.07;8.77;;;;;;;;;;4977083;28;20096;-70
2022/01/26 20:50:48;;;;;;;9.98;7.18;;;;;;;;;;4976174;28;20061;-69
2022/01/26 20:53:14;;;;;;;11.13;7.13;;;;;;;;;;4974765;28;20034;-67
2022/01/26 20:55:40;;;;;;;10.40;6.78;;;;;;;;;;4985857;28;20045;-69
2022/01/26 20:58:06;;;;;;;15.00;7.03;;;;;;;;;;4975787;28;20030;-69
2022/01/26 21:00:33;;;;;;;8.98;6.00;;;;;;;;;;4976599;28;20386;-69
2022/01/26 21:02:59;;;;;;;17.25;9.60;;;;;;;;;;4972244;28;20034;-68
2022/01/26 21:05:29;;;;;;;9.93;6.38;;;;;;;;;;4970315;28;20440;-67
2022/01/26 21:07:56;;;;;;;9.65;6.00;;;;;;;;;;4971265;28;20090;-68
2022/01/26 21:10:23;;;;;;;8.30;5.30;;;;;;;;;;4975071;28;20042;-69
2022/01/26 21:12:49;;;;;;;7.68;6.20;;;;;;;;;;4972674;28;20026;-68
2022/01/26 21:15:17;;;;;;;13.57;9.35;;;;;;;;;;4971809;28;20038;-69
2022/01/26 21:17:43;;;;;;;13.95;11.73;;;;;;;;;;4969392;28;20077;-68
2022/01/26 21:20:12;;;;;;;37.72;28.30;;;;;;;;;;4984915;28;20069;-68
2022/01/26 21:22:38;;;;;;;43.85;36.45;;;;;;;;;;4975546;28;20115;-69
2022/01/26 21:25:05;;;;;;;27.02;19.60;;;;;;;;;;4977152;28;20049;-70
2022/01/26 21:27:31;;;;;;;33.42;29.15;;;;;;;;;;4980785;28;20042;-69
2022/01/26 21:29:57;;;;;;;29.92;26.55;;;;;;;;;;4984772;28;20586;-70
2022/01/26 21:32:25;;;;;;;13.23;11.90;;;;;;;;;;4986715;28;20038;-69
2022/01/26 21:34:51;;;;;;;48.90;43.83;;;;;;;;;;4988750;28;20445;-70